sensor_id;sensor_type;location;lat;lon;timestamp;P1;durP1;ratioP1;P2;durP2;ratioP2
40204;SDS011;26963;42.666;23.366;2022-10-22T00:01:08;21.63;;;17.95;;
40204;SDS011;26963;42.666;23.366;2022-10-22T00:03:33;23.20;;;17.75;;
40204;SDS011;26963;42.666;23.366;2022-10-22T00:05:59;23.73;;;18.17;;
40204;SDS011;26963;42.666;23.366;2022-10-22T00:08:24;19.98;;;15.98;;
40204;SDS011;26963;42.666;23.366;2022-10-22T00:10:50;21.25;;;16.75;;
40204;SDS011;26963;42.666;23.366;2022-10-22T00:13:17;22.75;;;15.65;;
40204;SDS011;26963;42.666;23.366;2022-10-22T00:15:42;19.48;;;15.25;;
40204;SDS011;26963;42.666;23.366;2022-10-22T00:18:08;21.58;;;16.15;;
40204;SDS011;26963;42.666;23.366;2022-10-22T00:20:34;21.40;;;16.27;;
40204;SDS011;26963;42.666;23.366;2022-10-22T00:22:59;19.80;;;16.38;;
40204;SDS011;26963;42.666;23.366;2022-10-22T00:25:25;24.25;;;16.00;;
40204;SDS011;26963;42.666;23.366;2022-10-22T00:27:50;18.77;;;16.40;;
40204;SDS011;26963;42.666;23.366;2022-10-22T00:30:16;21.95;;;16.60;;
40204;SDS011;26963;42.666;23.366;2022-10-22T00:32:41;20.90;;;16.45;;
40204;SDS011;26963;42.666;23.366;2022-10-22T00:35:07;21.13;;;17.05;;
40204;SDS011;26963;42.666;23.366;2022-10-22T00:37:32;21.95;;;16.85;;
40204;SDS011;26963;42.666;23.366;2022-10-22T00:39:58;24.63;;;16.15;;
40204;SDS011;26963;42.666;23.366;2022-10-22T00:42:25;19.33;;;16.75;;
40204;SDS011;26963;42.666;23.366;2022-10-22T00:50:19;24.38;;;16.67;;
40204;SDS011;26963;42.666;23.366;2022-10-22T00:52:48;18.92;;;15.27;;
40204;SDS011;26963;42.666;23.366;2022-10-22T00:55:15;21.92;;;15.88;;
40204;SDS011;26963;42.666;23.366;2022-10-22T00:57:42;21.95;;;16.10;;
40204;SDS011;26963;42.666;23.366;2022-10-22T01:00:08;21.77;;;16.45;;
40204;SDS011;26963;42.666;23.366;2022-10-22T01:02:34;25.92;;;16.40;;
40204;SDS011;26963;42.666;23.366;2022-10-22T01:05:00;20.52;;;15.75;;
40204;SDS011;26963;42.666;23.366;2022-10-22T01:07:26;18.65;;;15.63;;
40204;SDS011;26963;42.666;23.366;2022-10-22T01:10:07;22.63;;;17.02;;
40204;SDS011;26963;42.666;23.366;2022-10-22T01:15:25;21.73;;;16.42;;
40204;SDS011;26963;42.666;23.366;2022-10-22T01:18:09;20.45;;;15.25;;
40204;SDS011;26963;42.666;23.366;2022-10-22T01:25:49;22.70;;;16.48;;
40204;SDS011;26963;42.666;23.366;2022-10-22T01:31:17;20.58;;;14.98;;
40204;SDS011;26963;42.666;23.366;2022-10-22T01:33:47;22.92;;;15.43;;
40204;SDS011;26963;42.666;23.366;2022-10-22T01:36:15;18.38;;;14.32;;
40204;SDS011;26963;42.666;23.366;2022-10-22T01:38:42;19.33;;;14.70;;
40204;SDS011;26963;42.666;23.366;2022-10-22T01:41:09;30.00;;;15.82;;
40204;SDS011;26963;42.666;23.366;2022-10-22T01:43:35;17.73;;;14.93;;
40204;SDS011;26963;42.666;23.366;2022-10-22T01:46:01;18.88;;;13.95;;
40204;SDS011;26963;42.666;23.366;2022-10-22T02:02:46;20.58;;;15.35;;
40204;SDS011;26963;42.666;23.366;2022-10-22T02:05:18;17.80;;;15.13;;
40204;SDS011;26963;42.666;23.366;2022-10-22T02:07:51;18.63;;;15.43;;
40204;SDS011;26963;42.666;23.366;2022-10-22T02:12:49;18.90;;;15.88;;
40204;SDS011;26963;42.666;23.366;2022-10-22T02:15:18;22.13;;;15.30;;
40204;SDS011;26963;42.666;23.366;2022-10-22T02:17:46;19.20;;;15.88;;
40204;SDS011;26963;42.666;23.366;2022-10-22T02:20:13;24.40;;;17.90;;
40204;SDS011;26963;42.666;23.366;2022-10-22T02:22:43;20.92;;;15.77;;
40204;SDS011;26963;42.666;23.366;2022-10-22T02:25:10;20.88;;;16.17;;
40204;SDS011;26963;42.666;23.366;2022-10-22T02:27:44;21.45;;;16.20;;
40204;SDS011;26963;42.666;23.366;2022-10-22T02:30:14;23.23;;;16.77;;
40204;SDS011;26963;42.666;23.366;2022-10-22T02:32:44;21.15;;;17.00;;
40204;SDS011;26963;42.666;23.366;2022-10-22T02:35:32;24.15;;;16.92;;
40204;SDS011;26963;42.666;23.366;2022-10-22T02:37:59;21.05;;;17.10;;
40204;SDS011;26963;42.666;23.366;2022-10-22T02:40:25;19.27;;;15.27;;
40204;SDS011;26963;42.666;23.366;2022-10-22T02:42:54;19.85;;;15.25;;
40204;SDS011;26963;42.666;23.366;2022-10-22T02:45:20;21.45;;;16.05;;
40204;SDS011;26963;42.666;23.366;2022-10-22T02:47:45;18.95;;;15.48;;
40204;SDS011;26963;42.666;23.366;2022-10-22T02:50:11;22.67;;;15.82;;
40204;SDS011;26963;42.666;23.366;2022-10-22T02:52:37;20.90;;;15.90;;
40204;SDS011;26963;42.666;23.366;2022-10-22T02:55:03;18.80;;;15.40;;
40204;SDS011;26963;42.666;23.366;2022-10-22T02:57:29;20.70;;;15.98;;
40204;SDS011;26963;42.666;23.366;2022-10-22T02:59:55;20.30;;;16.80;;
40204;SDS011;26963;42.666;23.366;2022-10-22T03:02:20;20.30;;;15.52;;
40204;SDS011;26963;42.666;23.366;2022-10-22T03:04:46;17.60;;;15.05;;
40204;SDS011;26963;42.666;23.366;2022-10-22T03:07:11;18.60;;;15.65;;
40204;SDS011;26963;42.666;23.366;2022-10-22T03:09:37;20.98;;;15.32;;
40204;SDS011;26963;42.666;23.366;2022-10-22T03:12:02;17.80;;;15.13;;
40204;SDS011;26963;42.666;23.366;2022-10-22T03:14:28;22.73;;;16.92;;
40204;SDS011;26963;42.666;23.366;2022-10-22T03:16:54;20.88;;;15.60;;
40204;SDS011;26963;42.666;23.366;2022-10-22T03:19:19;19.15;;;16.15;;
40204;SDS011;26963;42.666;23.366;2022-10-22T03:24:23;20.00;;;15.65;;
40204;SDS011;26963;42.666;23.366;2022-10-22T03:26:51;19.38;;;15.40;;
40204;SDS011;26963;42.666;23.366;2022-10-22T03:29:17;20.83;;;16.58;;
40204;SDS011;26963;42.666;23.366;2022-10-22T03:31:45;24.15;;;17.23;;
40204;SDS011;26963;42.666;23.366;2022-10-22T03:34:11;24.75;;;17.33;;
40204;SDS011;26963;42.666;23.366;2022-10-22T03:36:38;22.45;;;16.88;;
40204;SDS011;26963;42.666;23.366;2022-10-22T03:39:05;20.42;;;16.20;;
40204;SDS011;26963;42.666;23.366;2022-10-22T03:41:31;22.92;;;17.67;;
40204;SDS011;26963;42.666;23.366;2022-10-22T03:43:58;24.52;;;19.00;;
40204;SDS011;26963;42.666;23.366;2022-10-22T03:46:25;23.63;;;18.85;;
40204;SDS011;26963;42.666;23.366;2022-10-22T03:48:51;25.83;;;18.00;;
40204;SDS011;26963;42.666;23.366;2022-10-22T03:51:16;20.45;;;18.25;;
40204;SDS011;26963;42.666;23.366;2022-10-22T03:53:42;21.88;;;19.33;;
40204;SDS011;26963;42.666;23.366;2022-10-22T03:56:08;23.77;;;17.58;;
40204;SDS011;26963;42.666;23.366;2022-10-22T03:58:35;23.80;;;18.13;;
40204;SDS011;26963;42.666;23.366;2022-10-22T04:01:08;22.25;;;17.65;;
40204;SDS011;26963;42.666;23.366;2022-10-22T04:03:36;23.58;;;17.98;;
40204;SDS011;26963;42.666;23.366;2022-10-22T04:06:03;23.48;;;18.08;;
40204;SDS011;26963;42.666;23.366;2022-10-22T04:08:31;28.60;;;17.77;;
40204;SDS011;26963;42.666;23.366;2022-10-22T04:10:56;22.65;;;17.98;;
40204;SDS011;26963;42.666;23.366;2022-10-22T04:13:22;23.80;;;18.20;;
40204;SDS011;26963;42.666;23.366;2022-10-22T04:15:48;20.90;;;17.40;;
40204;SDS011;26963;42.666;23.366;2022-10-22T04:18:16;22.48;;;17.30;;
40204;SDS011;26963;42.666;23.366;2022-10-22T04:20:45;23.08;;;17.30;;
40204;SDS011;26963;42.666;23.366;2022-10-22T04:23:11;22.73;;;16.60;;
40204;SDS011;26963;42.666;23.366;2022-10-22T04:25:37;22.23;;;16.85;;
40204;SDS011;26963;42.666;23.366;2022-10-22T04:28:05;21.67;;;16.83;;
40204;SDS011;26963;42.666;23.366;2022-10-22T04:30:31;22.23;;;16.73;;
40204;SDS011;26963;42.666;23.366;2022-10-22T04:32:57;20.25;;;16.35;;
40204;SDS011;26963;42.666;23.366;2022-10-22T04:35:22;19.60;;;14.27;;
40204;SDS011;26963;42.666;23.366;2022-10-22T04:37:48;15.25;;;12.73;;
40204;SDS011;26963;42.666;23.366;2022-10-22T04:40:13;15.65;;;13.20;;
40204;SDS011;26963;42.666;23.366;2022-10-22T04:42:39;16.13;;;12.93;;
40204;SDS011;26963;42.666;23.366;2022-10-22T04:45:04;22.20;;;16.60;;
40204;SDS011;26963;42.666;23.366;2022-10-22T04:47:30;23.98;;;18.42;;
40204;SDS011;26963;42.666;23.366;2022-10-22T04:49:55;28.75;;;16.58;;
40204;SDS011;26963;42.666;23.366;2022-10-22T04:52:21;19.30;;;15.40;;
40204;SDS011;26963;42.666;23.366;2022-10-22T04:54:46;23.55;;;16.50;;
40204;SDS011;26963;42.666;23.366;2022-10-22T04:57:12;21.83;;;16.48;;
40204;SDS011;26963;42.666;23.366;2022-10-22T04:59:38;23.27;;;18.55;;
40204;SDS011;26963;42.666;23.366;2022-10-22T05:02:04;25.27;;;19.05;;
40204;SDS011;26963;42.666;23.366;2022-10-22T05:04:30;27.77;;;19.13;;
40204;SDS011;26963;42.666;23.366;2022-10-22T05:06:56;24.08;;;19.02;;
40204;SDS011;26963;42.666;23.366;2022-10-22T05:09:21;30.63;;;19.17;;
40204;SDS011;26963;42.666;23.366;2022-10-22T05:11:48;19.27;;;14.93;;
40204;SDS011;26963;42.666;23.366;2022-10-22T05:14:16;21.00;;;17.17;;
40204;SDS011;26963;42.666;23.366;2022-10-22T05:16:44;22.80;;;17.27;;
40204;SDS011;26963;42.666;23.366;2022-10-22T05:19:19;23.40;;;17.05;;
40204;SDS011;26963;42.666;23.366;2022-10-22T05:21:48;27.90;;;18.77;;
40204;SDS011;26963;42.666;23.366;2022-10-22T05:24:14;27.58;;;19.33;;
40204;SDS011;26963;42.666;23.366;2022-10-22T05:26:41;24.55;;;17.45;;
40204;SDS011;26963;42.666;23.366;2022-10-22T05:29:06;20.92;;;16.75;;
40204;SDS011;26963;42.666;23.366;2022-10-22T05:31:32;23.75;;;18.45;;
40204;SDS011;26963;42.666;23.366;2022-10-22T05:33:58;21.35;;;16.20;;
40204;SDS011;26963;42.666;23.366;2022-10-22T05:36:23;17.52;;;14.63;;
40204;SDS011;26963;42.666;23.366;2022-10-22T05:38:49;19.30;;;14.18;;
40204;SDS011;26963;42.666;23.366;2022-10-22T05:41:16;21.67;;;17.60;;
40204;SDS011;26963;42.666;23.366;2022-10-22T05:43:44;24.00;;;18.95;;
40204;SDS011;26963;42.666;23.366;2022-10-22T05:46:14;24.95;;;16.60;;
40204;SDS011;26963;42.666;23.366;2022-10-22T05:48:41;29.08;;;17.33;;
40204;SDS011;26963;42.666;23.366;2022-10-22T05:51:08;25.50;;;18.20;;
40204;SDS011;26963;42.666;23.366;2022-10-22T05:53:38;24.55;;;17.35;;
40204;SDS011;26963;42.666;23.366;2022-10-22T05:56:07;23.10;;;17.48;;
40204;SDS011;26963;42.666;23.366;2022-10-22T05:58:36;23.85;;;16.38;;
40204;SDS011;26963;42.666;23.366;2022-10-22T06:01:03;21.08;;;17.02;;
40204;SDS011;26963;42.666;23.366;2022-10-22T06:03:35;26.73;;;16.45;;
40204;SDS011;26963;42.666;23.366;2022-10-22T06:06:02;28.60;;;16.73;;
40204;SDS011;26963;42.666;23.366;2022-10-22T06:08:31;18.80;;;15.10;;
40204;SDS011;26963;42.666;23.366;2022-10-22T06:10:57;18.92;;;15.23;;
40204;SDS011;26963;42.666;23.366;2022-10-22T06:13:24;20.83;;;14.50;;
40204;SDS011;26963;42.666;23.366;2022-10-22T06:15:49;20.83;;;16.30;;
40204;SDS011;26963;42.666;23.366;2022-10-22T06:18:17;22.23;;;16.10;;
40204;SDS011;26963;42.666;23.366;2022-10-22T06:20:43;20.77;;;16.33;;
40204;SDS011;26963;42.666;23.366;2022-10-22T06:23:09;25.83;;;17.88;;
40204;SDS011;26963;42.666;23.366;2022-10-22T06:25:35;20.00;;;17.35;;
40204;SDS011;26963;42.666;23.366;2022-10-22T06:28:01;22.88;;;18.13;;
40204;SDS011;26963;42.666;23.366;2022-10-22T06:30:26;22.58;;;18.85;;
40204;SDS011;26963;42.666;23.366;2022-10-22T06:32:52;26.35;;;20.38;;
40204;SDS011;26963;42.666;23.366;2022-10-22T06:35:17;24.10;;;19.10;;
40204;SDS011;26963;42.666;23.366;2022-10-22T06:37:43;28.30;;;20.23;;
40204;SDS011;26963;42.666;23.366;2022-10-22T06:40:08;25.58;;;18.80;;
40204;SDS011;26963;42.666;23.366;2022-10-22T06:42:35;31.55;;;19.30;;
40204;SDS011;26963;42.666;23.366;2022-10-22T06:45:00;26.25;;;18.95;;
40204;SDS011;26963;42.666;23.366;2022-10-22T06:47:26;22.73;;;17.77;;
40204;SDS011;26963;42.666;23.366;2022-10-22T06:49:54;28.48;;;22.90;;
40204;SDS011;26963;42.666;23.366;2022-10-22T06:52:19;31.38;;;20.05;;
40204;SDS011;26963;42.666;23.366;2022-10-22T06:54:45;25.42;;;20.35;;
40204;SDS011;26963;42.666;23.366;2022-10-22T06:57:10;30.45;;;22.85;;
40204;SDS011;26963;42.666;23.366;2022-10-22T06:59:36;25.27;;;19.85;;
40204;SDS011;26963;42.666;23.366;2022-10-22T07:02:02;29.77;;;19.63;;
40204;SDS011;26963;42.666;23.366;2022-10-22T07:04:27;29.52;;;20.83;;
40204;SDS011;26963;42.666;23.366;2022-10-22T07:06:56;32.00;;;20.77;;
40204;SDS011;26963;42.666;23.366;2022-10-22T07:09:21;29.13;;;20.08;;
40204;SDS011;26963;42.666;23.366;2022-10-22T07:11:47;24.73;;;21.17;;
40204;SDS011;26963;42.666;23.366;2022-10-22T07:14:13;29.88;;;22.65;;
40204;SDS011;26963;42.666;23.366;2022-10-22T07:16:39;25.60;;;21.10;;
40204;SDS011;26963;42.666;23.366;2022-10-22T07:19:09;25.88;;;19.55;;
40204;SDS011;26963;42.666;23.366;2022-10-22T07:21:36;24.90;;;20.38;;
40204;SDS011;26963;42.666;23.366;2022-10-22T07:24:02;23.23;;;20.45;;
40204;SDS011;26963;42.666;23.366;2022-10-22T07:26:28;26.80;;;19.30;;
40204;SDS011;26963;42.666;23.366;2022-10-22T07:28:55;27.00;;;20.65;;
40204;SDS011;26963;42.666;23.366;2022-10-22T07:31:21;27.30;;;21.73;;
40204;SDS011;26963;42.666;23.366;2022-10-22T07:33:46;33.85;;;22.73;;
40204;SDS011;26963;42.666;23.366;2022-10-22T07:36:12;26.73;;;22.48;;
40204;SDS011;26963;42.666;23.366;2022-10-22T07:38:45;26.48;;;21.95;;
40204;SDS011;26963;42.666;23.366;2022-10-22T07:41:13;27.73;;;21.75;;
40204;SDS011;26963;42.666;23.366;2022-10-22T07:43:39;27.63;;;22.60;;
40204;SDS011;26963;42.666;23.366;2022-10-22T07:46:04;40.33;;;31.40;;
40204;SDS011;26963;42.666;23.366;2022-10-22T07:48:32;32.53;;;26.33;;
40204;SDS011;26963;42.666;23.366;2022-10-22T07:50:59;29.23;;;25.55;;
40204;SDS011;26963;42.666;23.366;2022-10-22T07:53:25;28.20;;;22.20;;
40204;SDS011;26963;42.666;23.366;2022-10-22T07:55:51;31.05;;;22.35;;
40204;SDS011;26963;42.666;23.366;2022-10-22T07:58:17;28.70;;;23.38;;
40204;SDS011;26963;42.666;23.366;2022-10-22T08:00:43;31.48;;;24.95;;
40204;SDS011;26963;42.666;23.366;2022-10-22T08:03:10;26.65;;;23.40;;
40204;SDS011;26963;42.666;23.366;2022-10-22T08:05:36;28.88;;;23.55;;
40204;SDS011;26963;42.666;23.366;2022-10-22T08:08:03;28.63;;;23.88;;
40204;SDS011;26963;42.666;23.366;2022-10-22T08:10:30;32.00;;;25.90;;
40204;SDS011;26963;42.666;23.366;2022-10-22T08:12:56;29.77;;;25.42;;
40204;SDS011;26963;42.666;23.366;2022-10-22T08:15:22;34.28;;;27.05;;
40204;SDS011;26963;42.666;23.366;2022-10-22T08:17:49;32.10;;;25.20;;
40204;SDS011;26963;42.666;23.366;2022-10-22T08:20:15;36.05;;;26.75;;
40204;SDS011;26963;42.666;23.366;2022-10-22T08:22:41;35.53;;;25.45;;
40204;SDS011;26963;42.666;23.366;2022-10-22T08:25:07;32.30;;;26.17;;
40204;SDS011;26963;42.666;23.366;2022-10-22T08:27:33;27.40;;;23.20;;
40204;SDS011;26963;42.666;23.366;2022-10-22T08:29:58;31.42;;;25.05;;
40204;SDS011;26963;42.666;23.366;2022-10-22T08:32:24;31.23;;;23.70;;
40204;SDS011;26963;42.666;23.366;2022-10-22T08:34:50;32.70;;;24.23;;
40204;SDS011;26963;42.666;23.366;2022-10-22T08:37:15;30.42;;;25.05;;
40204;SDS011;26963;42.666;23.366;2022-10-22T08:39:42;31.88;;;25.70;;
40204;SDS011;26963;42.666;23.366;2022-10-22T08:42:18;36.33;;;23.92;;
40204;SDS011;26963;42.666;23.366;2022-10-22T08:44:59;31.20;;;24.55;;
40204;SDS011;26963;42.666;23.366;2022-10-22T08:50:11;24.58;;;21.90;;
40204;SDS011;26963;42.666;23.366;2022-10-22T08:52:43;25.63;;;21.38;;
40204;SDS011;26963;42.666;23.366;2022-10-22T08:55:13;30.02;;;21.13;;
40204;SDS011;26963;42.666;23.366;2022-10-22T09:00:29;25.35;;;19.25;;
40204;SDS011;26963;42.666;23.366;2022-10-22T09:08:31;24.42;;;18.55;;
40204;SDS011;26963;42.666;23.366;2022-10-22T09:11:00;22.23;;;17.10;;
40204;SDS011;26963;42.666;23.366;2022-10-22T09:13:30;21.52;;;15.80;;
40204;SDS011;26963;42.666;23.366;2022-10-22T09:16:15;23.15;;;16.77;;
40204;SDS011;26963;42.666;23.366;2022-10-22T09:18:51;25.15;;;16.95;;
40204;SDS011;26963;42.666;23.366;2022-10-22T09:24:11;19.73;;;16.30;;
40204;SDS011;26963;42.666;23.366;2022-10-22T09:26:41;24.30;;;17.50;;
40204;SDS011;26963;42.666;23.366;2022-10-22T09:29:08;20.83;;;16.55;;
40204;SDS011;26963;42.666;23.366;2022-10-22T09:31:46;22.35;;;15.95;;
40204;SDS011;26963;42.666;23.366;2022-10-22T09:34:18;26.23;;;16.60;;
40204;SDS011;26963;42.666;23.366;2022-10-22T09:36:45;18.83;;;15.38;;
40204;SDS011;26963;42.666;23.366;2022-10-22T09:39:21;21.60;;;16.23;;
40204;SDS011;26963;42.666;23.366;2022-10-22T09:41:49;19.83;;;16.25;;
40204;SDS011;26963;42.666;23.366;2022-10-22T09:44:15;23.15;;;16.17;;
40204;SDS011;26963;42.666;23.366;2022-10-22T09:46:43;20.63;;;16.90;;
40204;SDS011;26963;42.666;23.366;2022-10-22T09:49:17;23.80;;;16.80;;
40204;SDS011;26963;42.666;23.366;2022-10-22T09:51:48;18.88;;;15.90;;
40204;SDS011;26963;42.666;23.366;2022-10-22T09:54:23;19.02;;;14.95;;
40204;SDS011;26963;42.666;23.366;2022-10-22T09:56:55;24.48;;;16.30;;
40204;SDS011;26963;42.666;23.366;2022-10-22T09:59:32;24.17;;;17.35;;
40204;SDS011;26963;42.666;23.366;2022-10-22T10:04:41;20.65;;;14.88;;
40204;SDS011;26963;42.666;23.366;2022-10-22T10:07:15;25.27;;;16.48;;
40204;SDS011;26963;42.666;23.366;2022-10-22T10:09:46;19.23;;;15.38;;
40204;SDS011;26963;42.666;23.366;2022-10-22T10:12:31;21.88;;;15.13;;
40204;SDS011;26963;42.666;23.366;2022-10-22T10:18:14;23.73;;;16.55;;
40204;SDS011;26963;42.666;23.366;2022-10-22T10:20:58;22.13;;;16.27;;
40204;SDS011;26963;42.666;23.366;2022-10-22T10:42:52;18.20;;;13.50;;
40204;SDS011;26963;42.666;23.366;2022-10-22T10:54:14;19.98;;;14.20;;
40204;SDS011;26963;42.666;23.366;2022-10-22T10:59:18;20.75;;;14.70;;
40204;SDS011;26963;42.666;23.366;2022-10-22T11:07:46;27.20;;;16.15;;
40204;SDS011;26963;42.666;23.366;2022-10-22T11:12:43;20.25;;;14.48;;
40204;SDS011;26963;42.666;23.366;2022-10-22T11:21:11;19.13;;;13.63;;
40204;SDS011;26963;42.666;23.366;2022-10-22T11:28:58;19.15;;;12.60;;
40204;SDS011;26963;42.666;23.366;2022-10-22T11:31:25;18.42;;;12.90;;
40204;SDS011;26963;42.666;23.366;2022-10-22T11:34:05;14.85;;;12.25;;
40204;SDS011;26963;42.666;23.366;2022-10-22T11:36:38;19.10;;;12.20;;
40204;SDS011;26963;42.666;23.366;2022-10-22T11:39:04;19.77;;;11.88;;
40204;SDS011;26963;42.666;23.366;2022-10-22T11:41:31;16.35;;;12.30;;
40204;SDS011;26963;42.666;23.366;2022-10-22T11:44:10;15.13;;;11.10;;
40204;SDS011;26963;42.666;23.366;2022-10-22T11:46:58;16.13;;;11.05;;
40204;SDS011;26963;42.666;23.366;2022-10-22T11:50:15;20.02;;;12.10;;
40204;SDS011;26963;42.666;23.366;2022-10-22T11:54:56;16.65;;;11.68;;
40204;SDS011;26963;42.666;23.366;2022-10-22T11:57:43;18.50;;;11.65;;
40204;SDS011;26963;42.666;23.366;2022-10-22T12:00:09;17.08;;;11.00;;
40204;SDS011;26963;42.666;23.366;2022-10-22T12:03:02;14.82;;;10.93;;
40204;SDS011;26963;42.666;23.366;2022-10-22T12:05:40;15.60;;;11.05;;
40204;SDS011;26963;42.666;23.366;2022-10-22T12:08:15;19.38;;;10.57;;
40204;SDS011;26963;42.666;23.366;2022-10-22T12:18:59;14.70;;;10.25;;
40204;SDS011;26963;42.666;23.366;2022-10-22T12:21:29;20.08;;;9.77;;
40204;SDS011;26963;42.666;23.366;2022-10-22T12:23:57;14.52;;;9.88;;
40204;SDS011;26963;42.666;23.366;2022-10-22T12:26:25;12.75;;;9.43;;
40204;SDS011;26963;42.666;23.366;2022-10-22T12:29:00;14.43;;;10.38;;
40204;SDS011;26963;42.666;23.366;2022-10-22T12:31:27;16.00;;;10.40;;
40204;SDS011;26963;42.666;23.366;2022-10-22T12:33:59;15.25;;;10.38;;
40204;SDS011;26963;42.666;23.366;2022-10-22T12:36:26;14.32;;;10.18;;
40204;SDS011;26963;42.666;23.366;2022-10-22T12:38:52;17.92;;;9.73;;
40204;SDS011;26963;42.666;23.366;2022-10-22T12:41:19;12.32;;;9.50;;
40204;SDS011;26963;42.666;23.366;2022-10-22T12:43:58;16.20;;;10.00;;
40204;SDS011;26963;42.666;23.366;2022-10-22T12:46:24;14.10;;;9.95;;
40204;SDS011;26963;42.666;23.366;2022-10-22T12:48:51;15.15;;;9.63;;
40204;SDS011;26963;42.666;23.366;2022-10-22T12:51:18;14.45;;;9.88;;
40204;SDS011;26963;42.666;23.366;2022-10-22T12:53:45;15.65;;;9.90;;
40204;SDS011;26963;42.666;23.366;2022-10-22T12:56:28;12.90;;;9.23;;
40204;SDS011;26963;42.666;23.366;2022-10-22T12:58:58;14.40;;;9.13;;
40204;SDS011;26963;42.666;23.366;2022-10-22T13:01:26;17.13;;;10.13;;
40204;SDS011;26963;42.666;23.366;2022-10-22T13:04:31;13.75;;;9.13;;
40204;SDS011;26963;42.666;23.366;2022-10-22T13:09:40;14.05;;;10.13;;
40204;SDS011;26963;42.666;23.366;2022-10-22T13:12:25;18.25;;;9.38;;
40204;SDS011;26963;42.666;23.366;2022-10-22T13:14:52;17.42;;;9.50;;
40204;SDS011;26963;42.666;23.366;2022-10-22T13:22:23;19.70;;;9.88;;
40204;SDS011;26963;42.666;23.366;2022-10-22T13:27:47;15.48;;;9.30;;
40204;SDS011;26963;42.666;23.366;2022-10-22T13:30:19;15.05;;;10.05;;
40204;SDS011;26963;42.666;23.366;2022-10-22T13:32:57;13.68;;;9.63;;
40204;SDS011;26963;42.666;23.366;2022-10-22T13:35:29;15.23;;;9.52;;
40204;SDS011;26963;42.666;23.366;2022-10-22T13:37:58;17.10;;;10.00;;
40204;SDS011;26963;42.666;23.366;2022-10-22T13:40:26;10.77;;;9.38;;
40204;SDS011;26963;42.666;23.366;2022-10-22T13:42:52;10.90;;;9.65;;
40204;SDS011;26963;42.666;23.366;2022-10-22T13:45:17;16.25;;;10.30;;
40204;SDS011;26963;42.666;23.366;2022-10-22T13:47:44;11.75;;;9.23;;
40204;SDS011;26963;42.666;23.366;2022-10-22T13:50:15;11.35;;;8.68;;
40204;SDS011;26963;42.666;23.366;2022-10-22T13:52:44;11.18;;;9.20;;
40204;SDS011;26963;42.666;23.366;2022-10-22T13:55:25;16.40;;;9.02;;
40204;SDS011;26963;42.666;23.366;2022-10-22T13:58:00;17.45;;;9.30;;
40204;SDS011;26963;42.666;23.366;2022-10-22T14:00:31;17.95;;;10.38;;
40204;SDS011;26963;42.666;23.366;2022-10-22T14:03:00;12.85;;;9.60;;
40204;SDS011;26963;42.666;23.366;2022-10-22T14:05:25;18.23;;;10.10;;
40204;SDS011;26963;42.666;23.366;2022-10-22T14:07:51;13.32;;;10.15;;
40204;SDS011;26963;42.666;23.366;2022-10-22T14:10:18;14.50;;;9.75;;
40204;SDS011;26963;42.666;23.366;2022-10-22T14:12:48;18.77;;;9.98;;
40204;SDS011;26963;42.666;23.366;2022-10-22T14:15:15;17.08;;;10.00;;
40204;SDS011;26963;42.666;23.366;2022-10-22T14:17:43;18.15;;;10.18;;
40204;SDS011;26963;42.666;23.366;2022-10-22T14:20:14;15.07;;;9.40;;
40204;SDS011;26963;42.666;23.366;2022-10-22T14:22:44;15.07;;;9.93;;
40204;SDS011;26963;42.666;23.366;2022-10-22T14:25:17;14.48;;;9.88;;
40204;SDS011;26963;42.666;23.366;2022-10-22T14:27:45;18.55;;;11.93;;
40204;SDS011;26963;42.666;23.366;2022-10-22T14:30:21;16.73;;;10.70;;
40204;SDS011;26963;42.666;23.366;2022-10-22T14:32:51;14.57;;;9.85;;
40204;SDS011;26963;42.666;23.366;2022-10-22T14:35:17;17.75;;;9.07;;
40204;SDS011;26963;42.666;23.366;2022-10-22T14:37:46;14.82;;;9.85;;
40204;SDS011;26963;42.666;23.366;2022-10-22T14:40:13;17.98;;;9.90;;
40204;SDS011;26963;42.666;23.366;2022-10-22T14:42:42;15.98;;;9.23;;
40204;SDS011;26963;42.666;23.366;2022-10-22T14:45:12;10.40;;;9.30;;
40204;SDS011;26963;42.666;23.366;2022-10-22T14:47:43;13.20;;;8.90;;
40204;SDS011;26963;42.666;23.366;2022-10-22T14:50:09;12.68;;;9.68;;
40204;SDS011;26963;42.666;23.366;2022-10-22T14:52:35;14.25;;;10.00;;
40204;SDS011;26963;42.666;23.366;2022-10-22T14:55:01;18.77;;;11.98;;
40204;SDS011;26963;42.666;23.366;2022-10-22T14:57:27;15.50;;;9.60;;
40204;SDS011;26963;42.666;23.366;2022-10-22T14:59:52;16.40;;;11.05;;
40204;SDS011;26963;42.666;23.366;2022-10-22T15:02:20;16.05;;;10.77;;
40204;SDS011;26963;42.666;23.366;2022-10-22T15:04:46;19.65;;;9.55;;
40204;SDS011;26963;42.666;23.366;2022-10-22T15:07:12;16.23;;;9.88;;
40204;SDS011;26963;42.666;23.366;2022-10-22T15:09:39;13.85;;;9.68;;
40204;SDS011;26963;42.666;23.366;2022-10-22T15:12:04;21.17;;;10.02;;
40204;SDS011;26963;42.666;23.366;2022-10-22T15:14:30;21.27;;;10.52;;
40204;SDS011;26963;42.666;23.366;2022-10-22T15:16:56;19.02;;;10.77;;
40204;SDS011;26963;42.666;23.366;2022-10-22T15:19:22;14.10;;;10.15;;
40204;SDS011;26963;42.666;23.366;2022-10-22T15:21:51;16.15;;;11.00;;
40204;SDS011;26963;42.666;23.366;2022-10-22T15:24:16;13.77;;;10.10;;
40204;SDS011;26963;42.666;23.366;2022-10-22T15:26:42;20.08;;;10.75;;
40204;SDS011;26963;42.666;23.366;2022-10-22T15:29:07;17.10;;;11.05;;
40204;SDS011;26963;42.666;23.366;2022-10-22T15:31:46;21.27;;;11.93;;
40204;SDS011;26963;42.666;23.366;2022-10-22T15:34:17;18.25;;;10.82;;
40204;SDS011;26963;42.666;23.366;2022-10-22T15:36:52;18.42;;;11.35;;
40204;SDS011;26963;42.666;23.366;2022-10-22T15:39:19;18.15;;;12.77;;
40204;SDS011;26963;42.666;23.366;2022-10-22T15:41:45;17.55;;;13.13;;
40204;SDS011;26963;42.666;23.366;2022-10-22T15:44:13;17.58;;;12.15;;
40204;SDS011;26963;42.666;23.366;2022-10-22T15:46:40;21.90;;;12.80;;
40204;SDS011;26963;42.666;23.366;2022-10-22T15:49:06;18.88;;;12.68;;
40204;SDS011;26963;42.666;23.366;2022-10-22T15:51:34;22.02;;;15.80;;
40204;SDS011;26963;42.666;23.366;2022-10-22T15:54:00;22.98;;;14.52;;
40204;SDS011;26963;42.666;23.366;2022-10-22T15:56:26;28.88;;;18.40;;
40204;SDS011;26963;42.666;23.366;2022-10-22T15:58:57;25.52;;;15.70;;
40204;SDS011;26963;42.666;23.366;2022-10-22T16:01:25;24.17;;;14.55;;
40204;SDS011;26963;42.666;23.366;2022-10-22T16:03:51;21.42;;;14.05;;
40204;SDS011;26963;42.666;23.366;2022-10-22T16:06:24;19.27;;;13.75;;
40204;SDS011;26963;42.666;23.366;2022-10-22T16:09:08;21.38;;;15.15;;
40204;SDS011;26963;42.666;23.366;2022-10-22T16:11:37;20.10;;;14.32;;
40204;SDS011;26963;42.666;23.366;2022-10-22T16:14:04;26.38;;;14.32;;
40204;SDS011;26963;42.666;23.366;2022-10-22T16:16:31;24.52;;;15.00;;
40204;SDS011;26963;42.666;23.366;2022-10-22T16:18:58;27.58;;;14.40;;
40204;SDS011;26963;42.666;23.366;2022-10-22T16:21:24;33.92;;;14.98;;
40204;SDS011;26963;42.666;23.366;2022-10-22T16:23:50;25.05;;;14.43;;
40204;SDS011;26963;42.666;23.366;2022-10-22T16:26:17;30.73;;;15.45;;